Latest Coastal Weather Observations for Cerberus

IDV60701

Issued at 8:02 pm EDT Thursday 21 October 2021 (issued every 10 minutes, with the page automatically refreshed every 10 minutes)

About coastal observations | Map of coastal stations | Coastal observations for VIC | Marine services | Other Formats
Station Details ID: 086361 Name: CERBERUS Lat: -38.36 Lon: 145.18 Height: 12.69 m
Data from the previous 72 hours. | See also: Recent months at Cerberus
Date/Time
EDT
Wind Sea
Height
m
Swell Vis
km
Cloud Weather Temp
°C
Press
MSL
hPa
Rain since
9am
mm
Dir  Spd
kts
Gust
kts
Height
m
Period
s
Dir
21/08:00pm E 3 5 - - - - - - - 20.1 1013.6 0.0
21/07:30pm ENE 2 3 - - - - - - - 21.2 1013.2 0.0
21/07:00pm CALM 0 0 - - - - - - - 22.1 1013.2 0.0
21/06:30pm NNW 2 3 - - - - - - - 22.6 1013.1 0.0
21/06:00pm NNW 3 6 - - - - - - - 23.1 1013.1 0.0
21/05:30pm W 3 6 - - - - - - - 23.4 1012.9 0.0
21/05:00pm ENE 3 6 - - - - - - - 24.2 1012.7 0.0
21/04:30pm ENE 5 8 - - - - - - - 24.1 1012.7 0.0
21/04:00pm NE 4 7 - - - - - - - 24.1 1012.7 0.0
21/03:30pm NE 6 10 - - - - - - - 23.9 1012.9 0.0
21/03:00pm NE 6 9 - - - - - - - 23.5 1013.0 0.0
21/02:30pm NE 6 10 - - - - - - - - 1013.4 0.0
21/02:00pm NE 5 9 - - - - - - - 23.1 1013.7 0.0
21/01:30pm NE 5 8 - - - - - - - 22.3 1013.9 0.0
21/01:00pm NE 6 9 - - - - - - - 21.3 1014.1 0.0
21/12:30pm NE 4 7 - - - - - - - 20.4 1014.4 0.0
21/12:00pm NE 6 10 - - - - - - - 19.4 1014.7 0.0
21/11:30am NNE 5 9 - - - - - - - 18.2 1014.8 0.0
21/11:00am NE 4 7 - - - - - - - 16.7 1015.4 0.0
21/10:30am NE 4 11 - - - - - - - 16.2 1015.3 0.0
21/10:00am NE 6 11 - - - - - - - 15.9 1015.4 0.0
21/09:30am NE 5 11 - - - - - - - 14.8 1015.3 0.0
21/09:00am NNE 6 11 - - - - - - - 14.6 1015.5 0.0
21/08:30am NE 6 12 - - - - - - - 14.1 1015.4 0.0
21/08:00am NNE 6 11 - - - - - - - 13.7 1015.3 0.0
21/07:30am NNE 6 9 - - - - - - - 13.7 1015.2 0.0
21/07:00am NE 6 11 - - - - - - - 13.5 1015.0 0.0
21/06:30am NE 6 11 - - - - - - - 13.4 1014.9 0.0
21/06:00am NE 7 15 - - - - - - - 13.5 1014.8 0.0
21/05:30am NNE 8 13 - - - - - - - 13.7 1014.7 0.0
21/05:00am NNE 7 12 - - - - - - - 13.7 1014.3 0.0
21/04:30am NE 7 13 - - - - - - - 13.7 1014.2 0.0
21/04:00am NNE 7 12 - - - - - - - 13.9 1014.5 0.0
21/03:30am NNE 7 12 - - - - - - - 14.1 1014.5 0.0
21/03:00am NE 6 12 - - - - - - - 14.1 1014.5 0.0
21/02:30am NE 7 12 - - - - - - - 14.2 1014.7 0.0
21/02:00am NE 6 12 - - - - - - - 14.2 1015.2 0.0
21/01:30am NE 5 9 - - - - - - - 14.2 1015.5 0.0
21/01:00am NE 7 11 - - - - - - - 14.3 1016.1 0.0
21/12:30am NE 7 13 - - - - - - - 14.3 1016.5 0.0
21/12:00am NE 6 10 - - - - - - - 14.4 1016.6 0.0
 
Date/Time
EDT
Wind Sea
Height
m
Swell Vis
km
Cloud Weather Temp
°C
Press
MSL
hPa
Rain since
9am
mm
Dir  Spd
kts
Gust
kts
Height
m
Period
s
Dir
20/11:30pm NE 8 14 - - - - - - - 14.4 1016.7 0.0
20/11:00pm NE 10 16 - - - - - - - 14.5 1017.0 0.0
20/10:30pm NE 7 13 - - - - - - - 14.5 1017.3 0.0
20/10:00pm NE 8 15 - - - - - - - 14.9 1017.5 0.0
20/09:30pm NE 8 13 - - - - - - - 15.3 1017.7 0.0
20/09:00pm ENE 6 11 - - - - - - - 15.6 1017.4 0.0
20/08:30pm NE 4 7 - - - - - - - 16.0 1017.4 0.0
20/08:00pm NE 5 9 - - - - - - - 16.6 1017.0 0.0
20/07:30pm ENE 7 11 - - - - - - - 17.4 1016.9 0.0
20/07:00pm NE 10 17 - - - - - - - 18.4 1016.6 0.0
20/06:30pm ENE 10 18 - - - - - - - 19.4 1016.4 0.0
20/06:00pm ENE 9 14 - - - - - - - 20.2 1016.2 0.0
20/05:30pm ENE 9 14 - - - - - - - 20.8 1016.2 0.0
20/05:00pm ENE 9 16 - - - - - - - 20.8 1016.4 0.0
20/04:30pm ENE 9 14 - - - - - - - 21.6 1016.6 0.0
20/04:00pm ENE 9 16 - - - - - - - 21.2 1017.0 0.0
20/03:30pm NE 9 14 - - - - - - - 20.9 1017.4 0.0
20/03:00pm ENE 8 13 - - - - - - - 21.4 1018.0 0.0
20/02:30pm NE 9 16 - - - - - - - 20.4 1018.7 0.0
20/02:00pm NE 8 15 - - - - - - - 20.8 1018.9 0.0
20/01:30pm NE 10 18 - - - - - - - 19.8 1019.1 0.0
20/01:00pm ENE 11 20 - - - - - - - 19.4 1019.4 0.0
20/12:30pm ENE 12 19 - - - - - - - 19.0 1020.0 0.0
20/12:00pm ENE 14 21 - - - - - - - 18.4 1020.4 0.0
20/11:30am ENE 15 24 - - - - - - - 18.0 1021.2 0.0
20/11:00am ENE 12 23 - - - - - - - 17.7 1021.1 0.0
20/10:30am ENE 11 18 - - - - - - - 17.1 1021.8 0.0
20/10:00am ENE 13 20 - - - - - - - 16.6 1022.1 0.0
20/09:30am ENE 12 19 - - - - - - - 16.0 1021.9 0.0
20/09:00am ENE 7 10 - - - - - - - 14.9 1022.6 0.0
20/08:30am E 6 10 - - - - - - - 14.0 1022.7 0.0
20/08:00am E 7 10 - - - - - - - 13.1 1022.7 0.0
20/07:30am E 8 11 - - - - - - - 12.4 1022.9 0.0
20/07:00am E 6 10 - - - - - - - 11.7 1023.2 0.0
20/06:30am E 4 7 - - - - - - - 11.2 1023.4 0.0
20/06:00am ESE 6 9 - - - - - - - 11.3 1022.7 0.0
20/05:30am ESE 5 7 - - - - - - - 11.1 1022.6 0.0
20/05:00am ESE 5 7 - - - - - - - 10.9 1022.4 0.0
20/04:30am E 5 9 - - - - - - - 11.2 1022.6 0.0
20/04:00am E 5 8 - - - - - - - 11.3 1022.5 0.0
20/03:30am E 5 8 - - - - - - - 11.5 1023.1 0.0
20/03:00am E 6 10 - - - - - - - 11.6 1023.3 0.0
20/02:30am E 7 13 - - - - - - - 11.6 1023.4 0.0
20/02:00am E 6 11 - - - - - - - 11.5 1023.7 0.0
20/01:30am E 6 13 - - - - - - - 11.5 1024.0 0.0
20/01:00am E 7 13 - - - - - - - 11.6 1024.4 0.0
20/12:30am ESE 7 13 - - - - - - - 11.8 1024.4 0.0
20/12:00am ESE 7 12 - - - - - - - 12.0 1025.0 0.0
 
Date/Time
EDT
Wind Sea
Height
m
Swell Vis
km
Cloud Weather Temp
°C
Press
MSL
hPa
Rain since
9am
mm
Dir  Spd
kts
Gust
kts
Height
m
Period
s
Dir
19/11:30pm ESE 9 14 - - - - - - - 12.2 1025.6 0.0
19/11:00pm SE 8 14 - - - - - - - 12.2 1025.1 0.0
19/10:30pm SE 8 14 - - - - - - - 12.5 1025.9 0.0
19/10:00pm ESE 8 18 - - - - - - - 12.9 1024.8 0.0
19/09:30pm ESE 7 13 - - - - - - - 13.0 1024.9 0.0
19/09:00pm ESE 10 16 - - - - - - - 13.0 1024.3 0.0
19/08:30pm ESE 8 13 - - - - - - - 12.9 1024.0 0.0
19/08:00pm ESE 11 19 - - - - - - - 12.9 1024.0 0.0
19/07:30pm ESE 11 20 - - - - - - - 13.5 1023.3 0.0
19/07:00pm SE 9 15 - - - - - - - 14.3 1023.1 0.0
19/06:30pm SE 9 19 - - - - - - - 14.8 1022.3 0.0
19/06:00pm SE 11 17 - - - - - - - 14.9 1022.5 0.0
19/05:30pm SE 9 16 - - - - - - - 14.8 1022.8 0.0
19/05:00pm SE 11 18 - - - - - - - 16.0 1022.7 0.0
19/04:30pm SSE 10 17 - - - - - - - 14.9 1022.9 0.0
19/04:00pm SE 10 19 - - - - - - - 14.3 1022.7 0.0
19/03:30pm SSE 9 14 - - - - - - - 15.0 1022.5 0.0
19/03:00pm SSE 12 19 - - - - - - - 15.2 1022.6 0.0
19/02:30pm SSE 10 16 - - - - - - - 14.9 1023.0 0.0
19/02:00pm SSE 12 20 - - - - - - - 15.1 1022.9 0.0
19/01:30pm SSE 9 14 - - - - - - - 15.2 1023.2 0.0
19/01:00pm SSE 11 19 - - - - - - - 14.4 1023.0 0.0
19/12:30pm SE 11 18 - - - - - - - 15.4 1022.9 0.0
19/12:00pm SE 13 19 - - - - - - - 15.1 1022.9 0.0
19/11:30am SE 10 15 - - - - - - - 15.1 1022.9 0.0
19/11:00am S 8 12 - - - - - - - 14.6 1022.8 0.0
19/10:30am S 5 8 - - - - - - - 13.1 1022.7 0.0
19/10:00am S 5 9 - - - - - - - 12.5 1022.7 0.0
19/09:30am S 5 7 - - - - - - - 13.4 1022.4 0.0
19/09:00am S 5 7 - - - - - - - 13.1 1022.2 0.0
19/08:30am S 5 7 - - - - - - - 12.9 1021.9 0.0
19/08:00am S 6 10 - - - - - - - 12.2 1021.4 0.0
19/07:30am SSW 6 10 - - - - - - - 11.7 1020.8 0.0
19/07:00am SSW 6 10 - - - - - - - 10.9 1020.3 0.0
19/06:30am S 7 10 - - - - - - - 11.3 1020.0 0.0
19/06:00am S 5 12 - - - - - - - 11.3 1019.5 0.0
19/05:30am S 5 7 - - - - - - - 10.7 1019.2 0.0
19/05:00am S 6 10 - - - - - - - 10.8 1018.9 0.0
19/04:30am S 12 17 - - - - - - - 10.7 1018.8 0.0
19/04:00am SW 6 11 - - - - - - - 11.2 1018.7 0.0
19/03:30am SW 5 10 - - - - - - - 11.1 1018.8 0.0
19/03:00am WSW 3 5 - - - - - - - 9.5 1018.8 0.0
19/02:30am W 3 4 - - - - - - - 9.2 1018.7 0.0
19/02:00am W 4 5 - - - - - - - 9.7 1018.8 0.0
19/01:30am W 2 3 - - - - - - - 9.4 1018.8 0.0
19/01:00am W 1 3 - - - - - - - 9.1 1018.7 0.0
19/12:30am W 2 2 - - - - - - - 9.3 1018.7 0.0
19/12:00am W 3 5 - - - - - - - 9.6 1018.4 0.0
 
Date/Time
EDT
Wind Sea
Height
m
Swell Vis
km
Cloud Weather Temp
°C
Press
MSL
hPa
Rain since
9am
mm
Dir  Spd
kts
Gust
kts
Height
m
Period
s
Dir
18/11:30pm W 3 4 - - - - - - - 9.4 1018.3 0.0
18/11:00pm WSW 3 5 - - - - - - - 9.5 1018.2 0.0
18/10:30pm WSW 5 6 - - - - - - - 10.1 1018.0 0.0
18/10:00pm WSW 6 9 - - - - - - - 10.7 1017.8 0.0
18/09:30pm WSW 7 12 - - - - - - - 11.3 1017.5 0.0
18/09:00pm SW 5 8 - - - - - - - 11.8 1017.1 0.0
18/08:30pm WSW 7 14 - - - - - - - 11.7 1016.7 0.0

Other formats

Comma delimited format used in spreadsheet applications
http://www.bom.gov.au/fwo/IDV60701/IDV60701.94898.axf

JavaScript Object Notation format (JSON) in row-major order
http://www.bom.gov.au/fwo/IDV60701/IDV60701.94898.json

Data quality

Most of these data are generated automatically and are frequently updated. Quality checks on data are not normally performed. It is possible for incorrect values to appear. Refer to information at About Latest Weather Observations and please check the disclaimer before using these data.